Terminal Aerodrome Forecast
Issued by NWS Mt. Holly, NJ

Home | Current Version | Previous Version | Text Only | Print | Product List | Glossary On
Versions: 1 2 3 4 5 6 7 8 9 10 11 12 13 14 15 16 17 18 19 20 21 22 23 24 25 26 27 28 29 30 31 32 33 34 35 36 37 38
000
FTAK31 PANC 251735
TAFABE
TAF
PABE 251735Z 2518/2618 14005KT 1SM BR SCT003 BKN040
      TEMPO 2518/2522 6SM BR
     FM252200 16006KT P6SM VCSH SCT040 BKN060
     FM260000 15006KT 6SM -RA BKN025 BKN045
     FM260900 VRB03KT P6SM SCT020 BKN040=

USA.gov is the U.S. government's official web portal to all federal, state and local government web resources and services.